Time;durP1;ratioP1;P1;durP2;ratioP2;P2;SDS_P1;SDS_P2;PMS_P1;PMS_P2;Temp;Humidity;BMP_temperature;BMP_pressure;BME280_temperature;BME280_humidity;BME280_pressure;Samples;Min_cycle;Max_cycle;Signal;HPM_P1;HPM_P2
2022/12/23 00:01:01;;;;;;;13.40;5.70;;;;;;;4.12;98.86;98462.37;105918;1287;66094;-70
2022/12/23 00:03:51;;;;;;;11.40;5.00;;;;;;;4.11;99.10;98461.05;106025;1287;72359;-68
2022/12/23 00:06:39;;;;;;;13.50;5.80;;;;;;;4.10;99.13;98461.23;105941;1299;59641;-70
2022/12/23 00:09:27;;;;;;;10.80;5.00;;;;;;;4.09;99.47;98460.13;105754;1295;58989;-70
2022/12/23 00:15:22;;;;;;;11.30;5.70;;;;;;;4.05;99.64;98452.02;105814;1297;67611;-70
2022/12/23 00:18:10;;;;;;;12.50;5.70;;;;;;;4.03;99.86;98449.69;105803;1287;72463;-70
2022/12/23 00:21:01;;;;;;;13.60;5.40;;;;;;;4.02;99.82;98449.77;105887;1294;58466;-71
2022/12/23 00:23:55;;;;;;;17.00;6.30;;;;;;;4.02;99.98;98451.53;105846;1291;60034;-69
2022/12/23 00:26:44;;;;;;;13.20;5.10;;;;;;;4.02;99.97;98451.48;105861;1291;73078;-70
2022/12/23 00:29:32;;;;;;;14.90;5.90;;;;;;;4.02;100.00;98456.25;105750;1295;66555;-70
2022/12/23 00:32:20;;;;;;;14.00;5.50;;;;;;;4.03;100.00;98457.18;105726;1294;71702;-69
2022/12/23 00:35:08;;;;;;;11.80;4.70;;;;;;;4.05;100.00;98456.57;105926;1293;57913;-70
2022/12/23 00:37:57;;;;;;;13.70;5.80;;;;;;;4.04;100.00;98463.83;105826;1292;58882;-67
2022/12/23 00:43:56;;;;;;;12.00;7.00;;;;;;;4.02;100.00;98469.60;105982;1292;67979;-69
2022/12/23 00:46:44;;;;;;;14.30;6.30;;;;;;;4.02;100.00;98468.56;106015;1288;72492;-67
2022/12/23 00:49:41;;;;;;;15.30;6.70;;;;;;;4.02;100.00;98468.55;106039;1292;57851;-69
2022/12/23 00:52:29;;;;;;;13.50;6.50;;;;;;;4.04;100.00;98468.01;105955;1291;60396;-69
2022/12/23 00:55:18;;;;;;;17.40;7.60;;;;;;;4.06;100.00;98469.80;106027;1291;73817;-69
2022/12/23 00:58:06;;;;;;;14.10;6.00;;;;;;;4.09;100.00;98464.34;106070;1290;67518;-69
2022/12/23 01:07:07;;;;;;;12.90;6.10;;;;;;;4.12;100.00;98455.67;106058;1291;61413;-69
2022/12/23 01:09:55;;;;;;;15.10;6.20;;;;;;;4.13;100.00;98469.86;105986;1292;73838;-68
2022/12/23 01:12:43;;;;;;;13.90;6.20;;;;;;;4.13;100.00;98465.42;105946;1295;67986;-69
2022/12/23 01:15:32;;;;;;;16.20;6.80;;;;;;;4.14;100.00;98472.35;105935;1291;73818;-68
2022/12/23 01:18:20;;;;;;;15.50;6.10;;;;;;;4.17;100.00;98476.23;106031;1292;59527;-68
2022/12/23 01:21:09;;;;;;;17.20;6.90;;;;;;;4.20;100.00;98477.90;106058;1290;58915;-68
2022/12/23 01:23:57;;;;;;;16.40;7.30;;;;;;;4.22;100.00;98471.21;105954;1291;72941;-68
2022/12/23 01:26:45;;;;;;;13.40;6.30;;;;;;;4.23;100.00;98471.85;106015;1295;68913;-69
2022/12/23 01:29:33;;;;;;;14.90;6.90;;;;;;;4.25;100.00;98467.33;106045;1287;72615;-69
2022/12/23 01:32:20;;;;;;;14.60;7.40;;;;;;;4.27;100.00;98472.07;106035;1292;59318;-69
2022/12/23 01:35:08;;;;;;;16.30;7.60;;;;;;;4.30;100.00;98473.81;105316;1285;1002933;-69
2022/12/23 01:37:56;;;;;;;17.70;7.30;;;;;;;4.32;100.00;98472.61;106029;1292;73858;-69
2022/12/23 01:40:44;;;;;;;14.40;6.00;;;;;;;4.34;100.00;98472.45;106092;1291;67851;-68
2022/12/23 01:43:50;;;;;;;15.80;7.00;;;;;;;4.34;100.00;98468.94;105918;1290;73575;-69
2022/12/23 01:46:38;;;;;;;17.90;8.00;;;;;;;4.34;100.00;98468.36;105918;1295;60075;-69
2022/12/23 01:49:26;;;;;;;15.90;7.10;;;;;;;4.35;100.00;98467.23;106045;1282;61549;-69
2022/12/23 01:52:14;;;;;;;16.20;7.00;;;;;;;4.36;100.00;98464.70;105924;1292;72771;-68
2022/12/23 01:55:03;;;;;;;17.20;7.40;;;;;;;4.37;100.00;98472.20;106053;1291;67826;-67
2022/12/23 01:57:55;;;;;;;15.70;7.50;;;;;;;4.38;100.00;98471.76;105927;1290;72723;-70
2022/12/23 02:03:56;;;;;;;14.60;6.50;;;;;;;4.40;100.00;98479.19;105850;1291;57730;-70
2022/12/23 02:09:55;;;;;;;15.50;6.70;;;;;;;4.42;100.00;98483.87;105879;1292;65332;-69
2022/12/23 02:13:13;;;;;;;15.90;6.50;;;;;;;4.42;100.00;98485.12;105804;1286;73757;-71
2022/12/23 02:16:17;;;;;;;15.70;6.80;;;;;;;4.45;100.00;98483.52;105862;1292;59532;-70
2022/12/23 02:19:21;;;;;;;16.30;7.20;;;;;;;4.46;100.00;98476.98;105861;1298;61188;-69
2022/12/23 02:23:23;;;;;;;15.00;7.50;;;;;;;4.47;100.00;98476.34;105788;1294;72990;-69
2022/12/23 02:26:54;;;;;;;15.60;6.80;;;;;;;4.47;100.00;98473.86;105909;1289;66500;-68
2022/12/23 02:30:28;;;;;;;12.90;5.00;;;;;;;4.47;100.00;98476.14;105838;1289;72463;-69
2022/12/23 02:33:50;;;;;;;14.80;6.70;;;;;;;4.44;100.00;98468.63;106060;1287;57177;-69
2022/12/23 02:37:04;;;;;;;17.30;6.70;;;;;;;4.43;100.00;98464.35;105966;1286;60008;-71
2022/12/23 02:40:10;;;;;;;15.70;6.90;;;;;;;4.41;100.00;98465.38;106034;1287;73006;-68
2022/12/23 02:43:11;;;;;;;15.00;6.40;;;;;;;4.39;100.00;98459.38;105917;1295;67670;-70
2022/12/23 02:46:34;;;;;;;14.50;6.20;;;;;;;4.39;100.00;98458.35;105945;1282;72605;-70
2022/12/23 02:49:35;;;;;;;13.30;5.70;;;;;;;4.37;100.00;98465.70;105968;1289;57892;-68
2022/12/23 02:52:31;;;;;;;13.20;5.70;;;;;;;4.35;100.00;98469.32;105864;1294;59037;-68
2022/12/23 02:55:31;;;;;;;11.70;4.70;;;;;;;4.37;100.00;98464.31;105867;1295;73894;-69
2022/12/23 02:58:26;;;;;;;13.40;5.30;;;;;;;4.37;100.00;98464.29;106039;1290;67849;-69
2022/12/23 03:01:16;;;;;;;16.00;6.20;;;;;;;4.39;100.00;98469.90;105948;1285;71448;-67
2022/12/23 03:04:04;;;;;;;12.30;5.60;;;;;;;4.42;100.00;98466.87;105830;1292;58234;-68
2022/12/23 03:06:56;;;;;;;14.30;5.50;;;;;;;4.44;100.00;98467.23;105918;1281;61426;-69
2022/12/23 03:10:11;;;;;;;14.80;6.00;;;;;;;4.47;100.00;98465.98;105943;1291;71502;-68
2022/12/23 03:13:46;;;;;;;17.50;6.90;;;;;;;4.49;100.00;98466.21;105967;1291;67771;-69
2022/12/23 03:16:52;;;;;;;15.10;6.70;;;;;;;4.52;100.00;98464.23;105897;1291;71137;-69
2022/12/23 03:20:41;;;;;;;12.00;5.30;;;;;;;4.55;100.00;98464.16;106049;1284;57866;-70
2022/12/23 03:23:55;;;;;;;17.50;6.30;;;;;;;4.56;100.00;98471.59;106051;1291;59544;-69
2022/12/23 03:27:22;;;;;;;13.20;4.90;;;;;;;4.58;100.00;98476.86;105956;1274;74273;-69
2022/12/23 03:30:18;;;;;;;17.10;6.90;;;;;;;4.60;100.00;98478.84;105946;1291;66907;-69
2022/12/23 03:33:48;;;;;;;19.00;7.00;;;;;;;4.60;100.00;98473.73;103639;1291;1002801;-71
2022/12/23 03:36:49;;;;;;;15.60;7.20;;;;;;;4.62;100.00;98468.00;106049;1292;57204;-69
2022/12/23 03:39:51;;;;;;;16.30;7.10;;;;;;;4.64;100.00;98468.55;105819;1290;61193;-69
2022/12/23 03:42:45;;;;;;;16.50;6.00;;;;;;;4.63;100.00;98466.16;105946;1292;71737;-70
2022/12/23 03:45:47;;;;;;;18.90;7.30;;;;;;;4.62;100.00;98472.36;105932;1290;67755;-68
2022/12/23 03:48:44;;;;;;;21.50;8.00;;;;;;;4.64;100.00;98474.18;105851;1291;74070;-69
2022/12/23 03:51:46;;;;;;;15.70;6.90;;;;;;;4.66;100.00;98469.63;105938;1287;60694;-67
2022/12/23 03:54:51;;;;;;;17.20;6.80;;;;;;;4.67;100.00;98472.70;105880;1292;60389;-67
2022/12/23 03:57:46;;;;;;;16.50;6.90;;;;;;;4.67;100.00;98470.36;105872;1291;72801;-68
2022/12/23 04:00:42;;;;;;;17.50;7.00;;;;;;;4.70;100.00;98470.00;105933;1290;68686;-67
2022/12/23 04:04:10;;;;;;;15.90;6.80;;;;;;;4.71;100.00;98472.55;105915;1292;73983;-68
2022/12/23 04:07:09;;;;;;;18.80;6.90;;;;;;;4.73;100.00;98469.38;105395;1299;58854;-68
2022/12/23 04:09:58;;;;;;;16.00;6.80;;;;;;;4.73;100.00;98467.63;105438;1297;58825;-71
2022/12/23 04:12:47;;;;;;;19.40;7.80;;;;;;;4.75;100.00;98466.61;105372;1290;73069;-69
2022/12/23 04:15:40;;;;;;;21.20;8.10;;;;;;;4.77;100.00;98467.84;105425;1297;67248;-66
2022/12/23 04:18:28;;;;;;;22.30;8.20;;;;;;;4.78;100.00;98471.95;105252;1297;72607;-67
2022/12/23 04:21:16;;;;;;;20.20;8.30;;;;;;;4.81;100.00;98470.88;105442;1291;59513;-68
2022/12/23 04:24:05;;;;;;;17.20;7.20;;;;;;;4.80;100.00;98473.04;105453;1289;59065;-67
2022/12/23 04:26:53;;;;;;;18.20;7.40;;;;;;;4.82;100.00;98469.73;105454;1297;72848;-68
2022/12/23 04:29:42;;;;;;;20.20;7.60;;;;;;;4.80;100.00;98468.13;105440;1301;67582;-68
2022/12/23 04:32:30;;;;;;;25.70;8.90;;;;;;;4.81;100.00;98468.59;105320;1297;72362;-69
2022/12/23 04:35:18;;;;;;;18.50;7.20;;;;;;;4.85;100.00;98468.98;105428;1297;59291;-69
2022/12/23 04:38:06;;;;;;;17.30;7.10;;;;;;;4.87;100.00;98472.46;105457;1298;61131;-69
2022/12/23 04:40:54;;;;;;;16.00;7.50;;;;;;;4.85;100.00;98471.08;105489;1296;71423;-70
2022/12/23 04:43:42;;;;;;;16.90;6.60;;;;;;;4.85;100.00;98472.48;105958;1287;68019;-68
2022/12/23 04:46:39;;;;;;;19.40;7.80;;;;;;;4.84;100.00;98471.02;106036;1289;71102;-70
2022/12/23 04:49:27;;;;;;;17.70;7.60;;;;;;;4.83;100.00;98469.49;106060;1292;59485;-70
2022/12/23 04:52:15;;;;;;;22.80;8.60;;;;;;;4.81;100.00;98466.80;106047;1292;60596;-69
2022/12/23 04:55:04;;;;;;;13.90;6.50;;;;;;;4.77;100.00;98465.35;106042;1290;72852;-67
2022/12/23 04:57:52;;;;;;;18.60;8.20;;;;;;;4.75;100.00;98466.39;106045;1288;66370;-71
2022/12/23 05:00:40;;;;;;;18.70;8.60;;;;;;;4.75;100.00;98460.27;106033;1291;71449;-70
2022/12/23 05:03:28;;;;;;;17.10;7.70;;;;;;;4.75;100.00;98464.33;105948;1289;57218;-70
2022/12/23 05:06:16;;;;;;;17.70;8.10;;;;;;;4.74;100.00;98476.34;105964;1284;61144;-70
2022/12/23 05:09:04;;;;;;;18.30;7.70;;;;;;;4.74;100.00;98478.45;106036;1275;72922;-70
2022/12/23 05:11:52;;;;;;;22.60;10.00;;;;;;;4.74;100.00;98473.20;105947;1282;67975;-69
2022/12/23 05:14:40;;;;;;;20.50;9.90;;;;;;;4.75;100.00;98471.48;105947;1291;72686;-69
2022/12/23 05:17:28;;;;;;;18.40;8.60;;;;;;;4.77;100.00;98477.17;106005;1285;59498;-69
2022/12/23 05:20:16;;;;;;;16.90;8.50;;;;;;;4.77;100.00;98472.95;106014;1282;58659;-69
2022/12/23 05:23:03;;;;;;;18.60;9.10;;;;;;;4.75;100.00;98468.69;105885;1284;74442;-68
2022/12/23 05:25:53;;;;;;;21.60;9.50;;;;;;;4.75;100.00;98465.00;106008;1290;67940;-69
2022/12/23 05:28:44;;;;;;;18.90;9.00;;;;;;;4.76;100.00;98471.08;105281;1289;1002436;-69
2022/12/23 05:31:32;;;;;;;20.10;9.10;;;;;;;4.76;100.00;98465.61;106020;1284;59273;-68
2022/12/23 05:34:21;;;;;;;22.70;9.60;;;;;;;4.75;100.00;98463.77;105911;1290;58706;-70
2022/12/23 05:37:08;;;;;;;17.20;7.70;;;;;;;4.76;100.00;98464.80;106029;1291;72853;-70
2022/12/23 05:39:56;;;;;;;20.20;8.80;;;;;;;4.74;100.00;98456.67;106015;1282;68025;-69
2022/12/23 05:42:44;;;;;;;18.80;8.80;;;;;;;4.70;100.00;98451.84;106011;1290;72902;-69
2022/12/23 05:45:35;;;;;;;17.30;7.60;;;;;;;4.66;100.00;98458.89;106047;1284;59292;-70
2022/12/23 05:48:24;;;;;;;17.00;8.40;;;;;;;4.63;100.00;98450.53;105876;1287;202759;-69
2022/12/23 05:51:11;;;;;;;18.20;8.40;;;;;;;4.60;100.00;98444.55;105996;1284;73120;-71
2022/12/23 05:53:59;;;;;;;19.50;9.20;;;;;;;4.59;100.00;98446.08;106021;1287;67933;-69
2022/12/23 05:56:47;;;;;;;14.50;7.10;;;;;;;4.58;100.00;98455.95;105913;1284;71524;-68
2022/12/23 05:59:35;;;;;;;18.50;8.70;;;;;;;4.58;100.00;98460.70;106001;1290;60566;-70
2022/12/23 06:02:23;;;;;;;17.80;8.20;;;;;;;4.58;100.00;98464.74;106025;1291;60116;-69
2022/12/23 06:05:12;;;;;;;21.70;9.10;;;;;;;4.56;100.00;98462.83;106031;1289;72798;-68
2022/12/23 06:08:00;;;;;;;22.50;9.30;;;;;;;4.53;100.00;98462.32;106001;1292;66748;-67
2022/12/23 06:10:48;;;;;;;20.40;9.50;;;;;;;4.53;100.00;98464.84;105992;1292;73706;-68
2022/12/23 06:13:35;;;;;;;18.00;8.50;;;;;;;4.55;100.00;98470.06;106048;1296;59510;-69
2022/12/23 06:16:23;;;;;;;20.00;9.10;;;;;;;4.56;100.00;98467.35;106055;1289;59034;-68
2022/12/23 06:19:11;;;;;;;19.00;8.40;;;;;;;4.56;100.00;98458.92;106023;1284;72928;-67
2022/12/23 06:21:59;;;;;;;20.10;9.80;;;;;;;4.55;100.00;98460.41;106108;1288;66273;-68
2022/12/23 06:24:47;;;;;;;18.60;8.70;;;;;;;4.53;100.00;98459.16;106107;1288;71315;-70
2022/12/23 06:27:35;;;;;;;21.10;8.80;;;;;;;4.47;100.00;98457.17;106091;1286;59246;-68
2022/12/23 06:30:23;;;;;;;21.40;8.70;;;;;;;4.43;100.00;98461.73;105988;1290;59398;-69
2022/12/23 06:33:11;;;;;;;21.70;9.70;;;;;;;4.40;100.00;98468.30;105751;1291;72963;-69
2022/12/23 06:35:59;;;;;;;22.80;8.10;;;;;;;4.35;100.00;98467.96;106052;1282;66733;-70
2022/12/23 06:38:47;;;;;;;15.70;8.10;;;;;;;4.32;100.00;98472.59;106021;1284;72345;-68
2022/12/23 06:41:35;;;;;;;22.30;8.70;;;;;;;4.32;100.00;98475.77;105996;1295;59459;-69
2022/12/23 06:44:23;;;;;;;19.90;8.40;;;;;;;4.32;100.00;98476.56;106035;1282;59047;-68
2022/12/23 06:47:11;;;;;;;18.50;8.60;;;;;;;4.35;100.00;98487.10;106010;1284;74414;-69
2022/12/23 06:49:59;;;;;;;19.30;8.30;;;;;;;4.37;100.00;98487.97;106013;1291;67976;-69
2022/12/23 06:52:48;;;;;;;20.00;8.80;;;;;;;4.38;100.00;98486.33;106001;1291;71048;-69
2022/12/23 06:55:36;;;;;;;19.10;8.00;;;;;;;4.41;100.00;98487.15;105994;1284;59251;-71
2022/12/23 06:58:24;;;;;;;18.50;8.90;;;;;;;4.44;100.00;98491.35;106023;1290;60400;-72
2022/12/23 07:01:12;;;;;;;21.00;8.80;;;;;;;4.45;100.00;98493.23;105899;1291;73064;-72
2022/12/23 07:04:00;;;;;;;22.70;8.80;;;;;;;4.46;100.00;98492.44;106049;1281;66877;-70
2022/12/23 07:06:49;;;;;;;21.60;8.30;;;;;;;4.46;100.00;98498.56;106020;1284;72357;-70
2022/12/23 07:09:37;;;;;;;17.70;7.80;;;;;;;4.47;100.00;98497.23;106017;1290;57921;-70
2022/12/23 07:12:25;;;;;;;16.30;8.00;;;;;;;4.48;100.00;98503.69;106023;1284;60030;-73
2022/12/23 07:15:13;;;;;;;23.20;7.50;;;;;;;4.47;99.96;98502.84;106007;1291;72112;-71
2022/12/23 07:18:00;;;;;;;17.70;8.30;;;;;;;4.47;99.92;98508.50;106018;1283;68877;-70
2022/12/23 07:20:50;;;;;;;18.90;9.00;;;;;;;4.48;99.99;98506.35;106064;1281;72446;-69
2022/12/23 07:23:37;;;;;;;17.80;7.70;;;;;;;4.49;99.91;98510.98;106005;1291;60658;-71
2022/12/23 07:26:26;;;;;;;20.30;8.80;;;;;;;4.47;99.86;98507.06;106095;1289;60393;-70
2022/12/23 07:29:14;;;;;;;19.40;7.70;;;;;;;4.47;99.92;98514.23;106061;1289;72707;-70
2022/12/23 07:32:03;;;;;;;21.40;8.00;;;;;;;4.45;99.89;98518.27;105984;1285;68889;-70
2022/12/23 07:34:51;;;;;;;18.00;8.10;;;;;;;4.48;99.81;98517.73;106085;1288;72817;-69
2022/12/23 07:37:39;;;;;;;20.40;8.10;;;;;;;4.47;99.73;98516.40;106094;1288;59270;-70
2022/12/23 07:40:27;;;;;;;17.20;7.60;;;;;;;4.48;99.68;98510.37;105911;1288;60073;-69
2022/12/23 07:43:15;;;;;;;19.80;8.60;;;;;;;4.48;99.67;98515.08;105281;1292;1002397;-69
2022/12/23 07:46:08;;;;;;;19.80;8.40;;;;;;;4.49;99.39;98523.25;105993;1281;67695;-70
2022/12/23 07:48:56;;;;;;;19.00;8.00;;;;;;;4.51;99.30;98523.83;106086;1281;72353;-74
2022/12/23 07:51:44;;;;;;;18.70;8.10;;;;;;;4.51;99.23;98519.04;105934;1291;59554;-72
2022/12/23 07:54:33;;;;;;;18.10;8.30;;;;;;;4.52;99.04;98509.11;106098;1281;59114;-72
2022/12/23 07:57:21;;;;;;;20.90;8.50;;;;;;;4.50;98.95;98505.11;106093;1295;72704;-76
2022/12/23 08:00:11;;;;;;;20.00;8.00;;;;;;;4.50;98.95;98503.89;105982;1288;67875;-75
2022/12/23 08:02:59;;;;;;;16.40;7.00;;;;;;;4.52;98.92;98507.58;105993;1291;71712;-74
2022/12/23 08:05:47;;;;;;;18.90;8.50;;;;;;;4.55;98.95;98503.32;106002;1292;59384;-73
2022/12/23 08:08:35;;;;;;;16.30;7.80;;;;;;;4.56;98.70;98507.38;106009;1291;61158;-74
2022/12/23 08:11:23;;;;;;;19.90;7.50;;;;;;;4.57;98.68;98506.30;105946;1291;74230;-77
2022/12/23 08:14:11;;;;;;;16.20;7.90;;;;;;;4.58;98.46;98509.17;106017;1276;67522;-74
2022/12/23 08:16:58;;;;;;;20.40;7.40;;;;;;;4.61;98.12;98511.61;105951;1291;71515;-73
2022/12/23 08:19:50;;;;;;;17.20;7.40;;;;;;;4.62;97.71;98511.23;105938;1284;57893;-74
2022/12/23 08:22:38;;;;;;;17.40;7.10;;;;;;;4.63;97.55;98511.86;106007;1291;59956;-73
2022/12/23 08:25:25;;;;;;;17.00;7.70;;;;;;;4.59;97.47;98511.55;105886;1291;71362;-76
2022/12/23 08:28:13;;;;;;;16.20;6.70;;;;;;;4.58;97.45;98510.78;105915;1285;66707;-75
2022/12/23 08:31:12;;;;;;;19.60;8.60;;;;;;;4.54;97.43;98514.42;104627;1281;1002359;-75
2022/12/23 08:34:01;;;;;;;15.70;7.10;;;;;;;4.53;97.35;98518.57;106365;1275;58105;-74
2022/12/23 08:36:49;;;;;;;17.00;8.00;;;;;;;4.53;97.38;98519.45;106056;1277;57673;-74
2022/12/23 08:39:37;;;;;;;18.70;7.90;;;;;;;4.54;97.37;98520.91;105874;1284;74205;-74
2022/12/23 08:42:25;;;;;;;14.20;6.70;;;;;;;4.55;97.57;98522.95;105865;1288;68725;-73
2022/12/23 08:45:14;;;;;;;15.90;7.50;;;;;;;4.55;97.19;98521.54;105850;1291;73087;-74
2022/12/23 08:48:04;;;;;;;16.40;8.10;;;;;;;4.53;97.38;98524.67;105863;1291;58095;-73
2022/12/23 08:50:52;;;;;;;18.40;7.20;;;;;;;4.57;97.34;98526.49;105865;1292;60044;-75
2022/12/23 08:53:40;;;;;;;22.60;8.40;;;;;;;4.61;97.50;98530.41;105856;1291;73045;-74
2022/12/23 08:56:33;;;;;;;15.50;7.40;;;;;;;4.63;97.18;98531.46;105874;1284;67771;-74
2022/12/23 08:59:21;;;;;;;16.20;7.60;;;;;;;4.64;96.92;98529.65;105865;1292;72648;-75
2022/12/23 09:02:10;;;;;;;16.80;7.70;;;;;;;4.67;96.71;98520.27;105865;1284;60848;-75
2022/12/23 09:04:58;;;;;;;18.10;8.10;;;;;;;4.69;96.40;98527.32;105737;1295;60315;-75
2022/12/23 09:07:46;;;;;;;17.30;7.50;;;;;;;4.69;96.23;98531.36;105868;1285;72766;-76
2022/12/23 09:10:43;;;;;;;15.60;7.50;;;;;;;4.68;96.11;98534.48;105852;1291;66514;-76
2022/12/23 09:13:31;;;;;;;21.30;8.00;;;;;;;4.69;96.70;98534.02;105692;1294;70517;-76
2022/12/23 09:16:22;;;;;;;18.90;8.70;;;;;;;4.72;96.08;98527.96;105783;1287;58553;-77
2022/12/23 09:19:11;;;;;;;17.60;8.10;;;;;;;4.75;95.86;98525.98;105808;1295;58679;-76
2022/12/23 09:21:59;;;;;;;20.60;9.10;;;;;;;4.80;95.98;98525.77;105785;1285;72839;-76
2022/12/23 09:24:47;;;;;;;21.30;8.60;;;;;;;4.83;95.94;98520.30;105679;1292;69101;-76
2022/12/23 09:27:35;;;;;;;18.70;8.00;;;;;;;4.86;95.64;98521.44;105751;1290;73699;-75
2022/12/23 09:30:23;;;;;;;21.10;8.80;;;;;;;4.86;95.43;98523.17;105758;1287;59756;-75
2022/12/23 09:33:11;;;;;;;20.00;9.40;;;;;;;4.85;95.18;98522.20;105788;1293;60087;-75
2022/12/23 09:36:00;;;;;;;17.40;8.00;;;;;;;4.88;95.35;98523.02;105768;1294;71665;-75
2022/12/23 09:38:56;;;;;;;21.50;9.20;;;;;;;4.88;95.08;98523.40;105727;1288;67654;-77
2022/12/23 09:41:53;;;;;;;19.60;8.00;;;;;;;4.85;95.27;98523.64;105804;1294;72438;-76
2022/12/23 09:45:10;;;;;;;18.80;8.40;;;;;;;4.83;95.52;98521.14;105708;1287;57184;-75
2022/12/23 09:47:59;;;;;;;18.90;8.30;;;;;;;4.80;95.31;98518.94;105663;1295;60060;-77
2022/12/23 09:50:48;;;;;;;20.10;8.30;;;;;;;4.77;95.47;98520.17;105798;1293;73038;-77
2022/12/23 09:54:11;;;;;;;17.20;7.40;;;;;;;4.76;95.54;98523.08;105556;1290;67608;-74
2022/12/23 09:57:21;;;;;;;18.60;8.80;;;;;;;4.76;95.28;98510.56;105685;1284;73775;-75
2022/12/23 10:00:13;;;;;;;24.20;10.00;;;;;;;4.80;95.61;98505.60;105685;1294;59246;-75
2022/12/23 10:03:24;;;;;;;22.40;9.20;;;;;;;4.84;95.13;98504.59;105706;1294;60129;-75
2022/12/23 10:06:30;;;;;;;20.70;9.70;;;;;;;4.77;94.71;98511.05;105760;1287;71595;-78
2022/12/23 10:09:18;;;;;;;19.90;9.30;;;;;;;4.82;95.24;98506.52;105768;1290;67990;-78
2022/12/23 10:12:42;;;;;;;18.70;8.30;;;;;;;4.84;94.83;98508.91;105726;1295;70124;-79
2022/12/23 10:15:42;;;;;;;21.30;9.60;;;;;;;4.86;94.75;98509.48;105880;1291;59331;-77
2022/12/23 10:18:56;;;;;;;18.30;8.40;;;;;;;4.87;94.72;98512.18;105756;1292;60085;-76
2022/12/23 10:22:10;;;;;;;21.40;8.80;;;;;;;4.93;94.68;98502.29;105892;1291;72890;-77
2022/12/23 10:25:02;;;;;;;17.70;8.20;;;;;;;5.02;94.31;98503.11;105825;1295;66609;-75
2022/12/23 10:27:50;;;;;;;20.90;8.90;;;;;;;5.13;93.78;98497.71;105686;1290;72362;-76
2022/12/23 10:30:42;;;;;;;19.40;8.80;;;;;;;5.21;93.88;98496.15;105868;1298;60388;-77
2022/12/23 10:34:04;;;;;;;17.70;7.40;;;;;;;5.27;93.19;98493.56;105750;1297;60068;-78
2022/12/23 10:37:29;;;;;;;17.20;7.40;;;;;;;5.27;92.54;98492.20;105565;1298;72839;-76
2022/12/23 10:40:48;;;;;;;19.40;8.00;;;;;;;5.23;92.12;98497.61;105866;1290;65495;-75
2022/12/23 10:44:26;;;;;;;18.10;8.20;;;;;;;5.22;92.11;98506.27;105869;1288;73777;-77
2022/12/23 10:48:02;;;;;;;20.20;8.40;;;;;;;5.23;92.37;98512.58;105813;1291;59206;-77
2022/12/23 10:51:27;;;;;;;19.40;8.00;;;;;;;5.19;92.29;98518.11;105279;1300;60500;-76
2022/12/23 10:54:24;;;;;;;16.10;7.60;;;;;;;5.14;91.94;98517.31;105182;1301;72729;-77
2022/12/23 10:57:15;;;;;;;21.30;7.90;;;;;;;5.11;92.51;98515.60;105170;1308;66911;-79
2022/12/23 11:00:20;;;;;;;20.20;8.00;;;;;;;5.07;92.35;98515.95;105155;1296;71489;-78
2022/12/23 11:03:22;;;;;;;18.20;8.20;;;;;;;5.01;92.58;98515.20;105070;1303;59376;-76
2022/12/23 11:06:12;;;;;;;17.80;8.40;;;;;;;4.98;92.99;98512.29;105257;1293;58959;-75
2022/12/23 11:09:02;;;;;;;19.00;8.00;;;;;;;4.93;93.30;98512.13;105092;1303;72725;-75
2022/12/23 11:11:53;;;;;;;20.20;8.20;;;;;;;4.91;93.53;98509.77;105172;1307;67404;-77
2022/12/23 11:14:55;;;;;;;20.70;9.20;;;;;;;4.87;93.55;98507.10;105184;1299;72641;-76
2022/12/23 11:17:57;;;;;;;17.90;8.50;;;;;;;4.87;93.71;98512.01;105079;1296;57388;-76
2022/12/23 11:21:05;;;;;;;20.10;8.90;;;;;;;4.89;93.79;98516.45;105207;1307;60126;-76
2022/12/23 11:24:21;;;;;;;18.70;8.10;;;;;;;4.90;94.16;98520.96;105076;1300;74272;-76
2022/12/23 11:27:14;;;;;;;20.70;8.80;;;;;;;4.90;94.20;98520.57;105399;1291;68041;-74
2022/12/23 11:30:03;;;;;;;23.80;9.10;;;;;;;4.90;94.07;98517.77;105699;1297;72488;-76
2022/12/23 11:32:51;;;;;;;20.00;9.00;;;;;;;4.88;94.10;98519.33;105749;1278;57816;-74
2022/12/23 11:35:40;;;;;;;20.90;9.60;;;;;;;4.89;94.45;98528.78;105870;1291;61551;-75
2022/12/23 11:38:28;;;;;;;20.30;7.90;;;;;;;4.92;94.74;98531.49;105900;1292;72817;-77
2022/12/23 11:41:29;;;;;;;20.60;9.30;;;;;;;4.97;94.43;98532.22;105775;1294;68747;-76
2022/12/23 11:44:29;;;;;;;22.80;8.40;;;;;;;4.97;94.45;98531.14;105860;1291;73750;-75
2022/12/23 11:47:21;;;;;;;23.80;9.50;;;;;;;5.00;94.45;98526.17;105894;1291;57583;-74
2022/12/23 11:50:19;;;;;;;20.10;9.40;;;;;;;5.00;94.32;98524.73;105828;1290;61176;-75
2022/12/23 11:53:18;;;;;;;22.90;9.60;;;;;;;5.02;94.58;98525.23;105728;1293;72286;-76
2022/12/23 11:56:12;;;;;;;22.70;9.60;;;;;;;5.02;94.43;98523.70;105896;1290;66760;-75
2022/12/23 11:59:06;;;;;;;18.10;8.40;;;;;;;4.99;94.68;98527.13;105738;1289;71868;-77
2022/12/23 12:02:02;;;;;;;21.70;9.20;;;;;;;4.94;95.01;98525.70;105746;1294;60415;-75
2022/12/23 12:05:01;;;;;;;19.70;8.90;;;;;;;4.92;95.18;98520.45;105715;1295;59398;-77
2022/12/23 12:07:50;;;;;;;22.90;9.40;;;;;;;4.86;95.47;98511.80;105889;1284;74384;-76
2022/12/23 12:10:40;;;;;;;23.70;9.40;;;;;;;4.86;95.48;98513.34;105565;1297;66588;-76
2022/12/23 12:13:38;;;;;;;18.60;7.90;;;;;;;4.91;96.04;98513.29;105500;1297;72420;-78
2022/12/23 12:17:03;;;;;;;24.60;10.10;;;;;;;4.95;95.57;98513.67;105408;1293;57452;-77
2022/12/23 12:20:19;;;;;;;20.20;9.10;;;;;;;4.98;95.61;98511.89;105586;1290;57723;-77
2022/12/23 12:23:40;;;;;;;21.70;8.70;;;;;;;5.00;95.38;98507.00;105558;1296;70597;-76
2022/12/23 12:26:35;;;;;;;24.80;9.50;;;;;;;5.01;95.41;98508.52;105492;1297;66469;-76
2022/12/23 12:29:49;;;;;;;22.50;9.90;;;;;;;5.03;95.38;98512.88;105490;1296;73935;-76
2022/12/23 12:32:59;;;;;;;20.90;8.50;;;;;;;5.06;95.21;98511.42;105493;1295;60531;-78
2022/12/23 12:35:57;;;;;;;25.50;10.20;;;;;;;5.05;95.12;98516.27;104662;1293;1002408;-76
2022/12/23 12:38:57;;;;;;;17.80;8.00;;;;;;;5.08;95.60;98516.77;105522;1297;71587;-79
2022/12/23 12:42:01;;;;;;;20.20;8.80;;;;;;;5.08;95.42;98517.74;105615;1297;66373;-76
2022/12/23 12:45:26;;;;;;;27.50;10.30;;;;;;;5.07;95.36;98513.46;105719;1285;70740;-76
2022/12/23 12:48:22;;;;;;;19.50;7.90;;;;;;;5.14;95.62;98517.67;105741;1294;57214;-77
2022/12/23 12:51:57;;;;;;;22.70;10.10;;;;;;;5.15;95.75;98519.53;105756;1295;58794;-76
2022/12/23 12:55:19;;;;;;;25.90;9.60;;;;;;;5.18;95.91;98514.52;105795;1287;71989;-77
2022/12/23 12:58:22;;;;;;;23.30;8.80;;;;;;;5.21;96.12;98517.05;105790;1291;67087;-77
2022/12/23 13:01:16;;;;;;;21.50;9.20;;;;;;;5.22;96.25;98516.14;105780;1294;71069;-79
2022/12/23 13:04:47;;;;;;;21.70;8.60;;;;;;;5.24;96.38;98518.99;105800;1295;59258;-77
2022/12/23 13:08:11;;;;;;;23.20;9.10;;;;;;;5.23;96.21;98524.84;105815;1286;58755;-82
2022/12/23 13:11:27;;;;;;;20.60;8.50;;;;;;;5.22;96.61;98527.55;105800;1293;74535;-77
2022/12/23 13:15:08;;;;;;;18.40;7.90;;;;;;;5.19;96.71;98528.84;105782;1291;66864;-77
2022/12/23 13:18:21;;;;;;;22.60;9.50;;;;;;;5.15;97.29;98526.58;105738;1290;71715;-77
2022/12/23 13:21:20;;;;;;;21.30;9.30;;;;;;;5.15;97.70;98519.55;105777;1286;58801;-78
2022/12/23 13:24:33;;;;;;;23.10;11.00;;;;;;;5.17;97.86;98520.77;105615;1297;59120;-75
2022/12/23 13:27:37;;;;;;;21.80;10.70;;;;;;;5.16;97.69;98516.45;105747;1294;71356;-78
2022/12/23 13:30:38;;;;;;;21.20;9.50;;;;;;;5.14;97.69;98519.56;105704;1294;67817;-75
2022/12/23 13:34:04;;;;;;;17.10;7.80;;;;;;;5.13;97.76;98519.00;105698;1295;71255;-78
2022/12/23 13:37:32;;;;;;;18.50;7.90;;;;;;;5.12;98.04;98523.79;105684;1295;57924;-77
2022/12/23 13:40:32;;;;;;;19.20;8.20;;;;;;;5.09;97.83;98527.55;105771;1290;58735;-76
2022/12/23 13:43:27;;;;;;;22.20;9.30;;;;;;;5.07;97.69;98527.67;105807;1290;72993;-75
2022/12/23 13:46:37;;;;;;;18.30;8.40;;;;;;;5.07;97.71;98530.34;105715;1296;66186;-76
2022/12/23 13:49:49;;;;;;;17.70;7.20;;;;;;;5.07;97.57;98526.80;105711;1295;71220;-74
2022/12/23 13:53:03;;;;;;;17.50;7.80;;;;;;;5.07;97.76;98528.07;105683;1301;57253;-75
2022/12/23 13:56:05;;;;;;;20.70;8.60;;;;;;;5.04;97.44;98529.36;105708;1295;60163;-76